SAS1415 EKCH-LEMG
Flight info
| Callsign | SAS1415 |
|---|---|
| Flight time | N/A |
| Altitude | 40000 |
| Route | NEXEN T503 GIMRU DCT KUXOD DCT MICOS DCT MAS DCT RASCA DCT FAMEN DCT AHVEC UN857 DISAK DCT ARKIP DCT ARNAV DCT LMG DCT UVELI DCT OSMOB DCT ARVID DCT PPN DCT NOLSA DCT ALEPO DCT VASUM N10 BAN DCT GOTOR DCT KAMPO DCT MONTO DCT CRISA N864 VULPE |
| Aircraft | A343/H-SDE2E3FGHIJ4J5M1RWXY/LB1D1 |
Departure
| Time | 2026-04-25 10:06 |
|---|---|
| Airport | Copenhagen Kastrup Airport (EKCH) |
Arrival
| Time | N/A |
|---|---|
| Airport | Málaga-Costa del Sol Airport (LEMG) |
| Time | Latitude | Longitude | Altitude | Speed | Heading |
|---|---|---|---|---|---|
| 2026-04-25 09:32 | 55.62554 | 12.64889 | 21 ft | 0 kts | 89° |
| 2026-04-25 09:57 | 55.62553 | 12.64848 | 25 ft | 4 kts | 87° |
| 2026-04-25 09:57 | 55.62552 | 12.64807 | 27 ft | 4 kts | 100° |
| 2026-04-25 09:58 | 55.62563 | 12.64776 | 26 ft | 4 kts | 164° |
| 2026-04-25 09:58 | 55.62590 | 12.64770 | 27 ft | 4 kts | 180° |
| 2026-04-25 09:58 | 55.62596 | 12.64770 | 27 ft | 0 kts | 179° |
| 2026-04-25 10:02 | 55.62580 | 12.64771 | 22 ft | 12 kts | 179° |
| 2026-04-25 10:02 | 55.62472 | 12.64777 | 23 ft | 17 kts | 177° |
| 2026-04-25 10:02 | 55.62352 | 12.64771 | 21 ft | 17 kts | 204° |
| 2026-04-25 10:03 | 55.62295 | 12.64602 | 23 ft | 16 kts | 247° |
| 2026-04-25 10:03 | 55.62232 | 12.64386 | 19 ft | 22 kts | 224° |
| 2026-04-25 10:03 | 55.62095 | 12.64259 | 23 ft | 25 kts | 205° |
| 2026-04-25 10:03 | 55.61921 | 12.64113 | 21 ft | 28 kts | 206° |
| 2026-04-25 10:04 | 55.61773 | 12.64077 | 23 ft | 0 kts | 175° |
| 2026-04-25 10:04 | 55.61769 | 12.64078 | 22 ft | 1 kts | 175° |
| 2026-04-25 10:04 | 55.61755 | 12.64080 | 22 ft | 3 kts | 175° |
| 2026-04-25 10:04 | 55.61714 | 12.64085 | 23 ft | 13 kts | 175° |
| 2026-04-25 10:05 | 55.61629 | 12.64072 | 29 ft | 11 kts | 206° |
| 2026-04-25 10:05 | 55.61522 | 12.63914 | 28 ft | 43 kts | 221° |
| 2026-04-25 10:05 | 55.61134 | 12.63312 | 28 ft | 104 kts | 219° |
| 2026-04-25 10:05 | 55.60445 | 12.62252 | 24 ft | 153 kts | 223° |
| 2026-04-25 10:06 | 55.59558 | 12.60914 | 165 ft | 180 kts | 225° |
| 2026-04-25 10:06 | 55.58601 | 12.59501 | 909 ft | 176 kts | 228° |
| 2026-04-25 10:06 | 55.57654 | 12.58007 | 1480 ft | 192 kts | 231° |
| 2026-04-25 10:06 | 55.56545 | 12.56313 | 1788 ft | 229 kts | 225° |
| 2026-04-25 10:07 | 55.55210 | 12.54589 | 2582 ft | 246 kts | 222° |
| 2026-04-25 10:07 | 55.53775 | 12.52830 | 3579 ft | 254 kts | 222° |
| 2026-04-25 10:07 | 55.52301 | 12.51035 | 4678 ft | 257 kts | 222° |
| 2026-04-25 10:07 | 55.50839 | 12.49258 | 5795 ft | 258 kts | 224° |
| 2026-04-25 10:08 | 55.49353 | 12.47444 | 6823 ft | 261 kts | 225° |
| 2026-04-25 10:08 | 55.47849 | 12.45607 | 7846 ft | 263 kts | 225° |
| 2026-04-25 10:08 | 55.46347 | 12.43771 | 8845 ft | 266 kts | 225° |
| 2026-04-25 10:08 | 55.44816 | 12.41901 | 9835 ft | 269 kts | 225° |
| 2026-04-25 10:09 | 55.43269 | 12.39989 | 10454 ft | 282 kts | 226° |
| 2026-04-25 10:09 | 55.41615 | 12.37843 | 10779 ft | 305 kts | 226° |
| 2026-04-25 10:09 | 55.39854 | 12.35563 | 11195 ft | 321 kts | 225° |
| 2026-04-25 10:09 | 55.38035 | 12.33245 | 11885 ft | 329 kts | 224° |
| 2026-04-25 10:10 | 55.36159 | 12.30873 | 12672 ft | 334 kts | 224° |
| 2026-04-25 10:10 | 55.34251 | 12.28465 | 13454 ft | 339 kts | 224° |
| 2026-04-25 10:10 | 55.32330 | 12.26044 | 14179 ft | 344 kts | 224° |
| 2026-04-25 10:10 | 55.30372 | 12.23580 | 14930 ft | 347 kts | 224° |
| 2026-04-25 10:11 | 55.28417 | 12.21122 | 15681 ft | 350 kts | 224° |
| 2026-04-25 10:11 | 55.26420 | 12.18613 | 16459 ft | 353 kts | 224° |
| 2026-04-25 10:11 | 55.24412 | 12.16093 | 17210 ft | 356 kts | 224° |
| 2026-04-25 10:11 | 55.22383 | 12.13549 | 17959 ft | 360 kts | 224° |
| 2026-04-25 10:12 | 55.20331 | 12.10978 | 18630 ft | 363 kts | 224° |
| 2026-04-25 10:12 | 55.18289 | 12.08424 | 19205 ft | 368 kts | 224° |
| 2026-04-25 10:12 | 55.14029 | 12.03101 | 20319 ft | 379 kts | 224° |
| 2026-04-25 10:13 | 55.11896 | 12.00446 | 20948 ft | 382 kts | 224° |
| 2026-04-25 10:13 | 55.09715 | 11.97735 | 21567 ft | 385 kts | 224° |
| 2026-04-25 10:13 | 55.07519 | 11.95006 | 22176 ft | 389 kts | 224° |
| 2026-04-25 10:13 | 55.05323 | 11.92283 | 22754 ft | 392 kts | 224° |
| 2026-04-25 10:14 | 55.03082 | 11.89506 | 23322 ft | 396 kts | 224° |
| 2026-04-25 10:14 | 55.00814 | 11.86700 | 23827 ft | 399 kts | 224° |
| 2026-04-25 10:14 | 54.98560 | 11.83916 | 24293 ft | 403 kts | 224° |
| 2026-04-25 10:14 | 54.96246 | 11.81061 | 24736 ft | 406 kts | 224° |
| 2026-04-25 10:15 | 54.93925 | 11.78201 | 25155 ft | 410 kts | 223° |